sensor_id;sensor_type;location;lat;lon;timestamp;P1;durP1;ratioP1;P2;durP2;ratioP2
83145;SDS011;73037;51.110;4.706;2024-01-30T00:01:53;13.07;;;6.35;;
83145;SDS011;73037;51.110;4.706;2024-01-30T00:04:19;9.93;;;6.40;;
83145;SDS011;73037;51.110;4.706;2024-01-30T00:06:44;11.75;;;6.30;;
83145;SDS011;73037;51.110;4.706;2024-01-30T00:09:10;11.15;;;5.80;;
83145;SDS011;73037;51.110;4.706;2024-01-30T00:11:36;11.63;;;6.55;;
83145;SDS011;73037;51.110;4.706;2024-01-30T00:14:03;10.43;;;6.38;;
83145;SDS011;73037;51.110;4.706;2024-01-30T00:16:29;13.75;;;6.53;;
83145;SDS011;73037;51.110;4.706;2024-01-30T00:18:55;14.50;;;6.13;;
83145;SDS011;73037;51.110;4.706;2024-01-30T00:21:21;12.73;;;6.47;;
83145;SDS011;73037;51.110;4.706;2024-01-30T00:23:47;9.93;;;6.03;;
83145;SDS011;73037;51.110;4.706;2024-01-30T00:26:13;11.82;;;6.18;;
83145;SDS011;73037;51.110;4.706;2024-01-30T00:28:42;10.13;;;5.97;;
83145;SDS011;73037;51.110;4.706;2024-01-30T00:31:07;10.00;;;5.82;;
83145;SDS011;73037;51.110;4.706;2024-01-30T00:33:37;9.43;;;5.28;;
83145;SDS011;73037;51.110;4.706;2024-01-30T00:36:04;12.05;;;5.53;;
83145;SDS011;73037;51.110;4.706;2024-01-30T00:40:56;10.63;;;5.32;;
83145;SDS011;73037;51.110;4.706;2024-01-30T00:43:22;10.27;;;5.38;;
83145;SDS011;73037;51.110;4.706;2024-01-30T00:45:49;9.60;;;5.45;;
83145;SDS011;73037;51.110;4.706;2024-01-30T00:48:17;10.88;;;5.80;;
83145;SDS011;73037;51.110;4.706;2024-01-30T00:50:43;11.00;;;5.68;;
83145;SDS011;73037;51.110;4.706;2024-01-30T00:53:09;9.82;;;5.78;;
83145;SDS011;73037;51.110;4.706;2024-01-30T00:55:35;9.15;;;5.45;;
83145;SDS011;73037;51.110;4.706;2024-01-30T00:58:01;10.15;;;5.20;;
83145;SDS011;73037;51.110;4.706;2024-01-30T01:00:28;8.40;;;5.25;;
83145;SDS011;73037;51.110;4.706;2024-01-30T01:02:57;7.60;;;5.40;;
83145;SDS011;73037;51.110;4.706;2024-01-30T01:05:23;8.05;;;5.05;;
83145;SDS011;73037;51.110;4.706;2024-01-30T01:07:49;11.40;;;5.35;;
83145;SDS011;73037;51.110;4.706;2024-01-30T01:10:15;9.82;;;5.63;;
83145;SDS011;73037;51.110;4.706;2024-01-30T01:12:42;10.60;;;5.20;;
83145;SDS011;73037;51.110;4.706;2024-01-30T01:15:08;9.45;;;4.75;;
83145;SDS011;73037;51.110;4.706;2024-01-30T01:17:37;8.98;;;5.32;;
83145;SDS011;73037;51.110;4.706;2024-01-30T01:20:03;8.23;;;4.90;;
83145;SDS011;73037;51.110;4.706;2024-01-30T01:22:31;9.32;;;5.00;;
83145;SDS011;73037;51.110;4.706;2024-01-30T01:24:57;9.68;;;5.10;;
83145;SDS011;73037;51.110;4.706;2024-01-30T01:27:24;8.18;;;4.35;;
83145;SDS011;73037;51.110;4.706;2024-01-30T01:29:50;9.13;;;4.35;;
83145;SDS011;73037;51.110;4.706;2024-01-30T01:32:16;9.68;;;4.78;;
83145;SDS011;73037;51.110;4.706;2024-01-30T01:34:41;8.02;;;4.93;;
83145;SDS011;73037;51.110;4.706;2024-01-30T01:37:07;8.65;;;4.72;;
83145;SDS011;73037;51.110;4.706;2024-01-30T01:39:33;9.35;;;4.70;;
83145;SDS011;73037;51.110;4.706;2024-01-30T01:41:59;9.15;;;4.82;;
83145;SDS011;73037;51.110;4.706;2024-01-30T01:44:25;8.27;;;4.60;;
83145;SDS011;73037;51.110;4.706;2024-01-30T01:46:51;7.45;;;4.30;;
83145;SDS011;73037;51.110;4.706;2024-01-30T01:49:17;8.43;;;4.78;;
83145;SDS011;73037;51.110;4.706;2024-01-30T01:51:44;9.30;;;4.68;;
83145;SDS011;73037;51.110;4.706;2024-01-30T01:54:12;8.05;;;4.53;;
83145;SDS011;73037;51.110;4.706;2024-01-30T01:56:39;7.85;;;5.05;;
83145;SDS011;73037;51.110;4.706;2024-01-30T01:59:06;10.40;;;4.97;;
83145;SDS011;73037;51.110;4.706;2024-01-30T02:01:33;8.80;;;5.00;;
83145;SDS011;73037;51.110;4.706;2024-01-30T02:04:01;11.10;;;4.75;;
83145;SDS011;73037;51.110;4.706;2024-01-30T02:06:27;7.97;;;5.07;;
83145;SDS011;73037;51.110;4.706;2024-01-30T02:08:53;8.13;;;4.82;;
83145;SDS011;73037;51.110;4.706;2024-01-30T02:11:22;9.13;;;4.97;;
83145;SDS011;73037;51.110;4.706;2024-01-30T02:13:49;8.63;;;5.18;;
83145;SDS011;73037;51.110;4.706;2024-01-30T02:16:15;7.78;;;4.78;;
83145;SDS011;73037;51.110;4.706;2024-01-30T02:18:42;9.25;;;4.93;;
83145;SDS011;73037;51.110;4.706;2024-01-30T02:21:12;8.13;;;4.50;;
83145;SDS011;73037;51.110;4.706;2024-01-30T02:23:41;7.95;;;4.88;;
83145;SDS011;73037;51.110;4.706;2024-01-30T02:26:09;8.27;;;5.43;;
83145;SDS011;73037;51.110;4.706;2024-01-30T02:28:34;8.85;;;5.30;;
83145;SDS011;73037;51.110;4.706;2024-01-30T02:31:00;9.85;;;5.60;;
83145;SDS011;73037;51.110;4.706;2024-01-30T02:33:26;7.85;;;4.75;;
83145;SDS011;73037;51.110;4.706;2024-01-30T02:35:51;8.95;;;4.68;;
83145;SDS011;73037;51.110;4.706;2024-01-30T02:38:17;7.22;;;4.60;;
83145;SDS011;73037;51.110;4.706;2024-01-30T02:40:43;7.25;;;4.57;;
83145;SDS011;73037;51.110;4.706;2024-01-30T02:43:08;9.43;;;5.15;;
83145;SDS011;73037;51.110;4.706;2024-01-30T02:45:34;7.88;;;5.32;;
83145;SDS011;73037;51.110;4.706;2024-01-30T02:48:00;17.48;;;12.15;;
83145;SDS011;73037;51.110;4.706;2024-01-30T02:50:25;10.60;;;6.50;;
83145;SDS011;73037;51.110;4.706;2024-01-30T02:52:51;7.93;;;4.93;;
83145;SDS011;73037;51.110;4.706;2024-01-30T02:55:16;8.45;;;5.72;;
83145;SDS011;73037;51.110;4.706;2024-01-30T02:57:43;10.75;;;6.18;;
83145;SDS011;73037;51.110;4.706;2024-01-30T03:00:09;7.60;;;4.78;;
83145;SDS011;73037;51.110;4.706;2024-01-30T03:02:35;9.20;;;5.88;;
83145;SDS011;73037;51.110;4.706;2024-01-30T03:05:01;11.57;;;7.35;;
83145;SDS011;73037;51.110;4.706;2024-01-30T03:09:54;11.18;;;7.75;;
83145;SDS011;73037;51.110;4.706;2024-01-30T03:12:20;8.82;;;5.15;;
83145;SDS011;73037;51.110;4.706;2024-01-30T03:14:46;9.25;;;5.28;;
83145;SDS011;73037;51.110;4.706;2024-01-30T03:17:12;7.75;;;5.55;;
83145;SDS011;73037;51.110;4.706;2024-01-30T03:19:38;6.95;;;4.13;;
83145;SDS011;73037;51.110;4.706;2024-01-30T03:22:04;6.93;;;4.47;;
83145;SDS011;73037;51.110;4.706;2024-01-30T03:24:30;7.07;;;4.00;;
83145;SDS011;73037;51.110;4.706;2024-01-30T03:26:55;8.40;;;4.20;;
83145;SDS011;73037;51.110;4.706;2024-01-30T03:29:21;7.25;;;4.05;;
83145;SDS011;73037;51.110;4.706;2024-01-30T03:31:47;7.22;;;4.40;;
83145;SDS011;73037;51.110;4.706;2024-01-30T03:34:12;8.15;;;4.38;;
83145;SDS011;73037;51.110;4.706;2024-01-30T03:36:38;9.55;;;4.53;;
83145;SDS011;73037;51.110;4.706;2024-01-30T03:39:04;5.57;;;3.97;;
83145;SDS011;73037;51.110;4.706;2024-01-30T03:41:30;5.97;;;4.57;;
83145;SDS011;73037;51.110;4.706;2024-01-30T03:43:55;7.75;;;4.15;;
83145;SDS011;73037;51.110;4.706;2024-01-30T03:46:21;7.88;;;4.75;;
83145;SDS011;73037;51.110;4.706;2024-01-30T03:48:46;7.53;;;4.10;;
83145;SDS011;73037;51.110;4.706;2024-01-30T03:51:12;6.45;;;4.30;;
83145;SDS011;73037;51.110;4.706;2024-01-30T03:56:06;9.18;;;5.38;;
83145;SDS011;73037;51.110;4.706;2024-01-30T03:58:32;10.55;;;5.95;;
83145;SDS011;73037;51.110;4.706;2024-01-30T04:00:57;9.77;;;4.78;;
83145;SDS011;73037;51.110;4.706;2024-01-30T04:03:23;10.10;;;4.85;;
83145;SDS011;73037;51.110;4.706;2024-01-30T04:05:49;7.80;;;4.82;;
83145;SDS011;73037;51.110;4.706;2024-01-30T04:08:16;9.35;;;6.15;;
83145;SDS011;73037;51.110;4.706;2024-01-30T04:10:42;7.53;;;4.28;;
83145;SDS011;73037;51.110;4.706;2024-01-30T04:13:08;5.97;;;4.60;;
83145;SDS011;73037;51.110;4.706;2024-01-30T04:15:34;6.60;;;4.28;;
83145;SDS011;73037;51.110;4.706;2024-01-30T04:18:00;6.25;;;4.15;;
83145;SDS011;73037;51.110;4.706;2024-01-30T04:20:25;6.13;;;4.07;;
83145;SDS011;73037;51.110;4.706;2024-01-30T04:22:51;7.60;;;4.22;;
83145;SDS011;73037;51.110;4.706;2024-01-30T04:25:17;7.15;;;4.60;;
83145;SDS011;73037;51.110;4.706;2024-01-30T04:27:42;6.38;;;4.53;;
83145;SDS011;73037;51.110;4.706;2024-01-30T04:30:08;7.75;;;4.28;;
83145;SDS011;73037;51.110;4.706;2024-01-30T04:32:35;7.70;;;4.50;;
83145;SDS011;73037;51.110;4.706;2024-01-30T04:35:01;7.22;;;4.18;;
83145;SDS011;73037;51.110;4.706;2024-01-30T04:37:27;7.60;;;3.97;;
83145;SDS011;73037;51.110;4.706;2024-01-30T04:39:52;6.47;;;4.47;;
83145;SDS011;73037;51.110;4.706;2024-01-30T04:42:18;6.88;;;3.78;;
83145;SDS011;73037;51.110;4.706;2024-01-30T04:44:44;4.72;;;3.50;;
83145;SDS011;73037;51.110;4.706;2024-01-30T04:47:10;7.30;;;4.03;;
83145;SDS011;73037;51.110;4.706;2024-01-30T04:49:38;6.78;;;3.90;;
83145;SDS011;73037;51.110;4.706;2024-01-30T04:52:07;6.57;;;5.05;;
83145;SDS011;73037;51.110;4.706;2024-01-30T04:54:34;7.75;;;5.15;;
83145;SDS011;73037;51.110;4.706;2024-01-30T04:57:00;8.77;;;4.55;;
83145;SDS011;73037;51.110;4.706;2024-01-30T04:59:28;7.32;;;5.35;;
83145;SDS011;73037;51.110;4.706;2024-01-30T05:01:54;7.63;;;4.82;;
83145;SDS011;73037;51.110;4.706;2024-01-30T05:04:20;8.88;;;5.35;;
83145;SDS011;73037;51.110;4.706;2024-01-30T05:06:45;6.88;;;4.07;;
83145;SDS011;73037;51.110;4.706;2024-01-30T05:09:11;10.57;;;7.00;;
83145;SDS011;73037;51.110;4.706;2024-01-30T05:11:40;7.57;;;4.32;;
83145;SDS011;73037;51.110;4.706;2024-01-30T05:14:06;7.18;;;4.72;;
83145;SDS011;73037;51.110;4.706;2024-01-30T05:16:33;6.70;;;3.72;;
83145;SDS011;73037;51.110;4.706;2024-01-30T05:18:59;6.75;;;3.90;;
83145;SDS011;73037;51.110;4.706;2024-01-30T05:21:25;7.65;;;4.18;;
83145;SDS011;73037;51.110;4.706;2024-01-30T05:23:51;6.78;;;4.80;;
83145;SDS011;73037;51.110;4.706;2024-01-30T05:26:16;6.28;;;4.60;;
83145;SDS011;73037;51.110;4.706;2024-01-30T05:28:42;8.30;;;4.00;;
83145;SDS011;73037;51.110;4.706;2024-01-30T05:31:09;5.97;;;4.30;;
83145;SDS011;73037;51.110;4.706;2024-01-30T05:33:35;7.40;;;4.15;;
83145;SDS011;73037;51.110;4.706;2024-01-30T05:36:01;9.07;;;4.75;;
83145;SDS011;73037;51.110;4.706;2024-01-30T05:38:27;5.80;;;3.95;;
83145;SDS011;73037;51.110;4.706;2024-01-30T05:40:53;5.53;;;3.92;;
83145;SDS011;73037;51.110;4.706;2024-01-30T05:43:20;6.55;;;4.72;;
83145;SDS011;73037;51.110;4.706;2024-01-30T05:45:45;8.77;;;5.32;;
83145;SDS011;73037;51.110;4.706;2024-01-30T05:48:11;10.85;;;7.00;;
83145;SDS011;73037;51.110;4.706;2024-01-30T05:50:37;8.68;;;5.90;;
83145;SDS011;73037;51.110;4.706;2024-01-30T05:53:02;8.65;;;4.68;;
83145;SDS011;73037;51.110;4.706;2024-01-30T05:55:28;7.40;;;4.55;;
83145;SDS011;73037;51.110;4.706;2024-01-30T05:57:54;5.78;;;4.95;;
83145;SDS011;73037;51.110;4.706;2024-01-30T06:00:19;7.57;;;4.43;;
83145;SDS011;73037;51.110;4.706;2024-01-30T06:02:45;6.43;;;4.47;;
83145;SDS011;73037;51.110;4.706;2024-01-30T06:05:10;7.57;;;4.25;;
83145;SDS011;73037;51.110;4.706;2024-01-30T06:07:36;8.32;;;4.32;;
83145;SDS011;73037;51.110;4.706;2024-01-30T06:10:02;8.73;;;5.07;;
83145;SDS011;73037;51.110;4.706;2024-01-30T06:12:28;8.45;;;5.45;;
83145;SDS011;73037;51.110;4.706;2024-01-30T06:14:54;8.57;;;5.00;;
83145;SDS011;73037;51.110;4.706;2024-01-30T06:17:22;7.70;;;4.47;;
83145;SDS011;73037;51.110;4.706;2024-01-30T06:19:48;7.88;;;5.05;;
83145;SDS011;73037;51.110;4.706;2024-01-30T06:22:14;7.55;;;4.22;;
83145;SDS011;73037;51.110;4.706;2024-01-30T06:24:40;10.40;;;4.85;;
83145;SDS011;73037;51.110;4.706;2024-01-30T06:27:05;9.98;;;5.63;;
83145;SDS011;73037;51.110;4.706;2024-01-30T06:29:31;8.18;;;4.95;;
83145;SDS011;73037;51.110;4.706;2024-01-30T06:31:56;7.15;;;4.68;;
83145;SDS011;73037;51.110;4.706;2024-01-30T06:34:22;7.30;;;5.13;;
83145;SDS011;73037;51.110;4.706;2024-01-30T06:36:48;7.53;;;4.60;;
83145;SDS011;73037;51.110;4.706;2024-01-30T06:39:13;8.20;;;4.60;;
83145;SDS011;73037;51.110;4.706;2024-01-30T06:41:39;6.90;;;4.55;;
83145;SDS011;73037;51.110;4.706;2024-01-30T06:44:05;7.38;;;4.75;;
83145;SDS011;73037;51.110;4.706;2024-01-30T06:46:33;10.48;;;4.57;;
83145;SDS011;73037;51.110;4.706;2024-01-30T06:48:59;7.97;;;4.57;;
83145;SDS011;73037;51.110;4.706;2024-01-30T06:51:24;9.18;;;4.90;;
83145;SDS011;73037;51.110;4.706;2024-01-30T06:53:50;8.73;;;5.15;;
83145;SDS011;73037;51.110;4.706;2024-01-30T06:56:16;8.48;;;4.93;;
83145;SDS011;73037;51.110;4.706;2024-01-30T06:58:46;6.97;;;4.70;;
83145;SDS011;73037;51.110;4.706;2024-01-30T07:01:18;7.22;;;4.07;;
83145;SDS011;73037;51.110;4.706;2024-01-30T07:03:43;8.05;;;4.45;;
83145;SDS011;73037;51.110;4.706;2024-01-30T07:06:09;9.35;;;5.20;;
83145;SDS011;73037;51.110;4.706;2024-01-30T07:08:38;9.48;;;5.03;;
83145;SDS011;73037;51.110;4.706;2024-01-30T07:11:07;8.48;;;5.60;;
83145;SDS011;73037;51.110;4.706;2024-01-30T07:13:33;10.18;;;5.35;;
83145;SDS011;73037;51.110;4.706;2024-01-30T07:18:25;7.85;;;5.05;;
83145;SDS011;73037;51.110;4.706;2024-01-30T07:20:50;9.20;;;7.47;;
83145;SDS011;73037;51.110;4.706;2024-01-30T07:23:16;11.30;;;6.55;;
83145;SDS011;73037;51.110;4.706;2024-01-30T07:25:43;9.18;;;5.50;;
83145;SDS011;73037;51.110;4.706;2024-01-30T07:28:13;8.80;;;5.07;;
83145;SDS011;73037;51.110;4.706;2024-01-30T07:30:42;8.07;;;4.95;;
83145;SDS011;73037;51.110;4.706;2024-01-30T07:33:08;8.30;;;4.78;;
83145;SDS011;73037;51.110;4.706;2024-01-30T07:35:34;8.05;;;4.97;;
83145;SDS011;73037;51.110;4.706;2024-01-30T07:38:00;8.55;;;4.50;;
83145;SDS011;73037;51.110;4.706;2024-01-30T07:40:26;7.25;;;4.95;;
83145;SDS011;73037;51.110;4.706;2024-01-30T07:42:53;8.95;;;4.47;;
83145;SDS011;73037;51.110;4.706;2024-01-30T07:45:19;12.45;;;5.32;;
83145;SDS011;73037;51.110;4.706;2024-01-30T07:47:49;10.40;;;5.30;;
83145;SDS011;73037;51.110;4.706;2024-01-30T07:50:15;10.00;;;5.00;;
83145;SDS011;73037;51.110;4.706;2024-01-30T07:52:41;7.75;;;5.10;;
83145;SDS011;73037;51.110;4.706;2024-01-30T07:55:07;11.20;;;6.35;;
83145;SDS011;73037;51.110;4.706;2024-01-30T07:57:33;11.73;;;7.10;;
83145;SDS011;73037;51.110;4.706;2024-01-30T08:00:00;8.63;;;5.90;;
83145;SDS011;73037;51.110;4.706;2024-01-30T08:02:26;8.35;;;5.55;;
83145;SDS011;73037;51.110;4.706;2024-01-30T08:04:51;10.15;;;4.95;;
83145;SDS011;73037;51.110;4.706;2024-01-30T08:07:17;10.35;;;5.18;;
83145;SDS011;73037;51.110;4.706;2024-01-30T08:09:43;8.55;;;4.63;;
83145;SDS011;73037;51.110;4.706;2024-01-30T08:12:09;8.32;;;5.00;;
83145;SDS011;73037;51.110;4.706;2024-01-30T08:14:35;7.70;;;4.53;;
83145;SDS011;73037;51.110;4.706;2024-01-30T08:17:00;10.70;;;4.97;;
83145;SDS011;73037;51.110;4.706;2024-01-30T08:19:26;6.60;;;4.85;;
83145;SDS011;73037;51.110;4.706;2024-01-30T08:21:52;8.32;;;5.15;;
83145;SDS011;73037;51.110;4.706;2024-01-30T08:24:17;10.23;;;5.55;;
83145;SDS011;73037;51.110;4.706;2024-01-30T08:26:43;10.70;;;6.82;;
83145;SDS011;73037;51.110;4.706;2024-01-30T08:29:09;14.90;;;12.93;;
83145;SDS011;73037;51.110;4.706;2024-01-30T08:31:35;8.90;;;5.88;;
83145;SDS011;73037;51.110;4.706;2024-01-30T08:34:01;7.35;;;5.03;;
83145;SDS011;73037;51.110;4.706;2024-01-30T08:36:26;12.13;;;5.80;;
83145;SDS011;73037;51.110;4.706;2024-01-30T08:38:52;9.60;;;5.30;;
83145;SDS011;73037;51.110;4.706;2024-01-30T08:41:18;13.90;;;8.38;;
83145;SDS011;73037;51.110;4.706;2024-01-30T08:43:44;9.52;;;5.95;;
83145;SDS011;73037;51.110;4.706;2024-01-30T08:46:10;10.82;;;6.05;;
83145;SDS011;73037;51.110;4.706;2024-01-30T08:48:36;8.77;;;5.75;;
83145;SDS011;73037;51.110;4.706;2024-01-30T08:51:01;9.60;;;5.82;;
83145;SDS011;73037;51.110;4.706;2024-01-30T08:53:27;11.75;;;8.20;;
83145;SDS011;73037;51.110;4.706;2024-01-30T08:55:53;24.50;;;16.95;;
83145;SDS011;73037;51.110;4.706;2024-01-30T08:58:19;11.13;;;8.15;;
83145;SDS011;73037;51.110;4.706;2024-01-30T09:00:44;15.40;;;10.07;;
83145;SDS011;73037;51.110;4.706;2024-01-30T09:03:10;11.07;;;6.07;;
83145;SDS011;73037;51.110;4.706;2024-01-30T09:05:36;11.20;;;7.20;;
83145;SDS011;73037;51.110;4.706;2024-01-30T09:08:01;13.63;;;7.20;;
83145;SDS011;73037;51.110;4.706;2024-01-30T09:10:27;9.93;;;5.35;;
83145;SDS011;73037;51.110;4.706;2024-01-30T09:12:53;11.75;;;6.63;;
83145;SDS011;73037;51.110;4.706;2024-01-30T09:15:18;10.82;;;6.80;;
83145;SDS011;73037;51.110;4.706;2024-01-30T09:17:44;9.88;;;5.70;;
83145;SDS011;73037;51.110;4.706;2024-01-30T09:20:10;9.43;;;5.85;;
83145;SDS011;73037;51.110;4.706;2024-01-30T09:22:36;11.57;;;5.72;;
83145;SDS011;73037;51.110;4.706;2024-01-30T09:25:02;10.85;;;6.47;;
83145;SDS011;73037;51.110;4.706;2024-01-30T09:27:28;9.65;;;6.18;;
83145;SDS011;73037;51.110;4.706;2024-01-30T09:29:53;14.32;;;7.20;;
83145;SDS011;73037;51.110;4.706;2024-01-30T09:32:19;13.43;;;6.20;;
83145;SDS011;73037;51.110;4.706;2024-01-30T09:34:45;8.30;;;5.57;;
83145;SDS011;73037;51.110;4.706;2024-01-30T09:37:10;13.00;;;6.10;;
83145;SDS011;73037;51.110;4.706;2024-01-30T09:39:36;12.93;;;5.60;;
83145;SDS011;73037;51.110;4.706;2024-01-30T09:42:05;11.88;;;6.38;;
83145;SDS011;73037;51.110;4.706;2024-01-30T09:44:54;12.95;;;6.10;;
83145;SDS011;73037;51.110;4.706;2024-01-30T09:47:21;13.98;;;6.63;;
83145;SDS011;73037;51.110;4.706;2024-01-30T09:49:46;11.82;;;7.13;;
83145;SDS011;73037;51.110;4.706;2024-01-30T09:52:13;14.75;;;6.90;;
83145;SDS011;73037;51.110;4.706;2024-01-30T09:54:40;11.23;;;6.85;;
83145;SDS011;73037;51.110;4.706;2024-01-30T09:59:33;11.95;;;6.00;;
83145;SDS011;73037;51.110;4.706;2024-01-30T10:01:59;11.07;;;6.60;;
83145;SDS011;73037;51.110;4.706;2024-01-30T10:04:25;11.73;;;6.25;;
83145;SDS011;73037;51.110;4.706;2024-01-30T10:06:50;11.93;;;6.13;;
83145;SDS011;73037;51.110;4.706;2024-01-30T10:09:16;13.40;;;6.95;;
83145;SDS011;73037;51.110;4.706;2024-01-30T10:11:42;10.63;;;6.50;;
83145;SDS011;73037;51.110;4.706;2024-01-30T10:14:07;12.98;;;6.95;;
83145;SDS011;73037;51.110;4.706;2024-01-30T10:16:36;12.05;;;6.57;;
83145;SDS011;73037;51.110;4.706;2024-01-30T10:19:02;10.75;;;6.43;;
83145;SDS011;73037;51.110;4.706;2024-01-30T10:21:29;13.57;;;7.05;;
83145;SDS011;73037;51.110;4.706;2024-01-30T10:23:56;13.13;;;7.07;;
83145;SDS011;73037;51.110;4.706;2024-01-30T10:26:22;11.10;;;6.55;;
83145;SDS011;73037;51.110;4.706;2024-01-30T10:28:48;10.68;;;6.80;;
83145;SDS011;73037;51.110;4.706;2024-01-30T10:31:17;12.63;;;6.68;;
83145;SDS011;73037;51.110;4.706;2024-01-30T10:33:46;9.88;;;6.15;;
83145;SDS011;73037;51.110;4.706;2024-01-30T10:36:13;11.73;;;6.65;;
83145;SDS011;73037;51.110;4.706;2024-01-30T10:38:42;9.27;;;6.28;;
83145;SDS011;73037;51.110;4.706;2024-01-30T10:41:10;11.60;;;6.90;;
83145;SDS011;73037;51.110;4.706;2024-01-30T10:43:42;12.27;;;6.53;;
83145;SDS011;73037;51.110;4.706;2024-01-30T10:48:46;13.20;;;6.10;;
83145;SDS011;73037;51.110;4.706;2024-01-30T10:51:19;8.73;;;6.00;;
83145;SDS011;73037;51.110;4.706;2024-01-30T10:53:47;9.88;;;5.35;;
83145;SDS011;73037;51.110;4.706;2024-01-30T10:56:16;11.15;;;4.85;;
83145;SDS011;73037;51.110;4.706;2024-01-30T11:01:07;6.50;;;3.83;;
83145;SDS011;73037;51.110;4.706;2024-01-30T11:03:34;7.05;;;4.50;;
83145;SDS011;73037;51.110;4.706;2024-01-30T11:06:01;8.73;;;4.22;;
83145;SDS011;73037;51.110;4.706;2024-01-30T11:08:27;8.30;;;4.22;;
83145;SDS011;73037;51.110;4.706;2024-01-30T11:10:57;7.28;;;4.28;;
83145;SDS011;73037;51.110;4.706;2024-01-30T11:13:30;7.78;;;3.40;;
83145;SDS011;73037;51.110;4.706;2024-01-30T11:16:03;8.90;;;3.40;;
83145;SDS011;73037;51.110;4.706;2024-01-30T11:18:30;7.72;;;3.15;;
83145;SDS011;73037;51.110;4.706;2024-01-30T11:20:57;6.43;;;2.50;;
83145;SDS011;73037;51.110;4.706;2024-01-30T11:23:25;4.97;;;2.53;;
83145;SDS011;73037;51.110;4.706;2024-01-30T11:25:52;4.03;;;2.25;;
83145;SDS011;73037;51.110;4.706;2024-01-30T11:28:18;4.15;;;2.33;;
83145;SDS011;73037;51.110;4.706;2024-01-30T11:30:45;4.60;;;2.30;;
83145;SDS011;73037;51.110;4.706;2024-01-30T11:33:13;5.28;;;2.20;;
83145;SDS011;73037;51.110;4.706;2024-01-30T11:35:40;4.78;;;1.92;;
83145;SDS011;73037;51.110;4.706;2024-01-30T11:38:09;6.13;;;2.03;;
83145;SDS011;73037;51.110;4.706;2024-01-30T11:40:37;6.38;;;2.05;;
83145;SDS011;73037;51.110;4.706;2024-01-30T11:43:08;6.05;;;1.70;;
83145;SDS011;73037;51.110;4.706;2024-01-30T11:45:34;3.40;;;1.30;;
83145;SDS011;73037;51.110;4.706;2024-01-30T11:48:01;3.70;;;1.20;;
83145;SDS011;73037;51.110;4.706;2024-01-30T11:50:30;2.15;;;1.00;;
83145;SDS011;73037;51.110;4.706;2024-01-30T11:52:56;3.10;;;1.10;;
83145;SDS011;73037;51.110;4.706;2024-01-30T11:55:23;3.65;;;1.15;;
83145;SDS011;73037;51.110;4.706;2024-01-30T11:57:49;2.50;;;1.00;;
83145;SDS011;73037;51.110;4.706;2024-01-30T12:00:18;4.88;;;1.17;;
83145;SDS011;73037;51.110;4.706;2024-01-30T12:02:44;2.35;;;0.80;;
83145;SDS011;73037;51.110;4.706;2024-01-30T12:05:20;3.35;;;0.70;;
83145;SDS011;73037;51.110;4.706;2024-01-30T12:07:47;2.63;;;0.60;;
83145;SDS011;73037;51.110;4.706;2024-01-30T12:10:13;3.42;;;0.82;;
83145;SDS011;73037;51.110;4.706;2024-01-30T12:12:39;1.50;;;0.60;;
83145;SDS011;73037;51.110;4.706;2024-01-30T12:15:06;2.55;;;0.60;;
83145;SDS011;73037;51.110;4.706;2024-01-30T12:17:33;2.33;;;0.57;;
83145;SDS011;73037;51.110;4.706;2024-01-30T12:20:09;3.92;;;0.70;;
83145;SDS011;73037;51.110;4.706;2024-01-30T12:22:37;6.65;;;0.52;;
83145;SDS011;73037;51.110;4.706;2024-01-30T12:25:08;3.03;;;0.75;;
83145;SDS011;73037;51.110;4.706;2024-01-30T12:30:07;2.42;;;0.70;;
83145;SDS011;73037;51.110;4.706;2024-01-30T12:32:34;3.15;;;0.68;;
83145;SDS011;73037;51.110;4.706;2024-01-30T12:35:01;2.17;;;0.80;;
83145;SDS011;73037;51.110;4.706;2024-01-30T12:37:27;4.38;;;1.17;;
83145;SDS011;73037;51.110;4.706;2024-01-30T12:39:54;2.42;;;0.80;;
83145;SDS011;73037;51.110;4.706;2024-01-30T12:42:20;1.42;;;0.70;;
83145;SDS011;73037;51.110;4.706;2024-01-30T12:44:47;2.58;;;0.60;;
83145;SDS011;73037;51.110;4.706;2024-01-30T12:47:13;1.05;;;0.40;;
83145;SDS011;73037;51.110;4.706;2024-01-30T12:49:41;2.20;;;0.60;;
83145;SDS011;73037;51.110;4.706;2024-01-30T12:52:08;3.85;;;0.77;;
83145;SDS011;73037;51.110;4.706;2024-01-30T12:54:34;1.90;;;0.60;;
83145;SDS011;73037;51.110;4.706;2024-01-30T12:56:59;2.10;;;0.40;;
83145;SDS011;73037;51.110;4.706;2024-01-30T12:59:25;3.25;;;0.50;;
83145;SDS011;73037;51.110;4.706;2024-01-30T13:01:51;2.92;;;0.60;;
83145;SDS011;73037;51.110;4.706;2024-01-30T13:04:16;2.28;;;0.60;;
83145;SDS011;73037;51.110;4.706;2024-01-30T13:06:42;1.92;;;0.63;;
83145;SDS011;73037;51.110;4.706;2024-01-30T13:09:08;2.22;;;0.40;;
83145;SDS011;73037;51.110;4.706;2024-01-30T13:11:34;4.32;;;0.93;;
83145;SDS011;73037;51.110;4.706;2024-01-30T13:13:59;4.45;;;0.80;;
83145;SDS011;73037;51.110;4.706;2024-01-30T13:16:25;4.03;;;0.47;;
83145;SDS011;73037;51.110;4.706;2024-01-30T13:18:51;3.75;;;1.13;;
83145;SDS011;73037;51.110;4.706;2024-01-30T13:21:17;3.40;;;0.70;;
83145;SDS011;73037;51.110;4.706;2024-01-30T13:23:42;3.03;;;0.82;;
83145;SDS011;73037;51.110;4.706;2024-01-30T13:26:08;1.50;;;0.47;;
83145;SDS011;73037;51.110;4.706;2024-01-30T13:28:34;1.15;;;0.90;;
83145;SDS011;73037;51.110;4.706;2024-01-30T13:30:59;1.13;;;0.65;;
83145;SDS011;73037;51.110;4.706;2024-01-30T13:33:26;2.03;;;0.57;;
83145;SDS011;73037;51.110;4.706;2024-01-30T13:35:51;2.88;;;0.50;;
83145;SDS011;73037;51.110;4.706;2024-01-30T13:38:17;2.22;;;0.60;;
83145;SDS011;73037;51.110;4.706;2024-01-30T13:40:43;2.28;;;0.80;;
83145;SDS011;73037;51.110;4.706;2024-01-30T13:43:08;4.85;;;0.80;;
83145;SDS011;73037;51.110;4.706;2024-01-30T13:45:34;5.45;;;0.77;;
83145;SDS011;73037;51.110;4.706;2024-01-30T13:48:00;2.55;;;0.70;;
83145;SDS011;73037;51.110;4.706;2024-01-30T13:50:26;4.50;;;1.00;;
83145;SDS011;73037;51.110;4.706;2024-01-30T13:52:53;4.38;;;0.85;;
83145;SDS011;73037;51.110;4.706;2024-01-30T13:55:18;1.08;;;0.80;;
83145;SDS011;73037;51.110;4.706;2024-01-30T13:57:44;3.95;;;0.82;;
83145;SDS011;73037;51.110;4.706;2024-01-30T14:00:10;2.47;;;1.17;;
83145;SDS011;73037;51.110;4.706;2024-01-30T14:02:36;6.43;;;1.52;;
83145;SDS011;73037;51.110;4.706;2024-01-30T14:05:02;6.55;;;1.90;;
83145;SDS011;73037;51.110;4.706;2024-01-30T14:07:29;3.20;;;1.30;;
83145;SDS011;73037;51.110;4.706;2024-01-30T14:09:55;4.28;;;1.10;;
83145;SDS011;73037;51.110;4.706;2024-01-30T14:12:21;4.70;;;1.10;;
83145;SDS011;73037;51.110;4.706;2024-01-30T14:14:46;6.00;;;1.33;;
83145;SDS011;73037;51.110;4.706;2024-01-30T14:17:12;1.13;;;0.75;;
83145;SDS011;73037;51.110;4.706;2024-01-30T14:19:38;3.42;;;0.80;;
83145;SDS011;73037;51.110;4.706;2024-01-30T14:22:03;2.50;;;0.85;;
83145;SDS011;73037;51.110;4.706;2024-01-30T14:24:29;2.88;;;0.90;;
83145;SDS011;73037;51.110;4.706;2024-01-30T14:26:55;3.97;;;1.08;;
83145;SDS011;73037;51.110;4.706;2024-01-30T14:29:20;1.40;;;1.00;;
83145;SDS011;73037;51.110;4.706;2024-01-30T14:31:46;3.17;;;0.95;;
83145;SDS011;73037;51.110;4.706;2024-01-30T14:34:12;1.88;;;0.95;;
83145;SDS011;73037;51.110;4.706;2024-01-30T14:36:38;1.60;;;1.10;;
83145;SDS011;73037;51.110;4.706;2024-01-30T14:39:04;3.38;;;1.30;;
83145;SDS011;73037;51.110;4.706;2024-01-30T14:41:31;2.13;;;1.23;;
83145;SDS011;73037;51.110;4.706;2024-01-30T14:43:57;4.07;;;0.93;;
83145;SDS011;73037;51.110;4.706;2024-01-30T14:46:23;1.70;;;1.00;;
83145;SDS011;73037;51.110;4.706;2024-01-30T14:48:49;1.83;;;0.93;;
83145;SDS011;73037;51.110;4.706;2024-01-30T14:51:16;3.22;;;1.10;;
83145;SDS011;73037;51.110;4.706;2024-01-30T14:53:42;3.42;;;1.10;;
83145;SDS011;73037;51.110;4.706;2024-01-30T14:56:08;4.72;;;1.17;;
83145;SDS011;73037;51.110;4.706;2024-01-30T14:58:35;4.43;;;1.23;;